createdAt,value
2023-01-06T00:01:36.245Z,13.61
2023-01-06T00:04:03.715Z,13.63
2023-01-06T00:06:31.679Z,13.62
2023-01-06T00:09:01.683Z,13.62
2023-01-06T00:11:28.990Z,13.64
2023-01-06T00:13:56.804Z,13.65
2023-01-06T00:16:24.011Z,13.67
2023-01-06T00:18:54.567Z,13.65
2023-01-06T00:21:21.691Z,13.68
2023-01-06T00:23:48.691Z,13.71
2023-01-06T00:26:15.777Z,13.68
2023-01-06T00:28:42.979Z,13.66
2023-01-06T00:31:12.424Z,13.65
2023-01-06T00:33:39.589Z,13.66
2023-01-06T00:36:07.359Z,13.64
2023-01-06T00:38:36.744Z,13.60
2023-01-06T00:41:05.530Z,13.60
2023-01-06T00:43:32.736Z,13.58
2023-01-06T00:46:01.984Z,13.60
2023-01-06T00:48:29.142Z,13.58
2023-01-06T00:51:00.675Z,13.55
2023-01-06T00:53:27.720Z,13.48
2023-01-06T00:55:59.955Z,13.41
2023-01-06T00:58:29.892Z,13.39
2023-01-06T01:00:56.974Z,13.35
2023-01-06T01:03:24.109Z,13.35
2023-01-06T01:05:51.240Z,13.32
2023-01-06T01:08:18.333Z,13.29
2023-01-06T01:10:45.392Z,13.19
2023-01-06T01:13:12.476Z,13.16
2023-01-06T01:15:39.652Z,13.13
2023-01-06T01:18:06.752Z,13.13
2023-01-06T01:20:34.399Z,13.08
2023-01-06T01:23:01.493Z,13.08
2023-01-06T01:25:28.530Z,13.04
2023-01-06T01:27:55.492Z,13.03
2023-01-06T01:30:22.530Z,13.06
2023-01-06T01:32:49.531Z,13.10
2023-01-06T01:35:16.715Z,13.15
2023-01-06T01:37:43.745Z,13.15
2023-01-06T01:40:11.384Z,13.14
2023-01-06T01:42:43.195Z,13.17
2023-01-06T01:45:13.284Z,13.15
2023-01-06T01:47:43.490Z,13.17
2023-01-06T01:50:14.257Z,13.08
2023-01-06T01:52:43.489Z,13.07
2023-01-06T01:55:11.231Z,13.05
2023-01-06T01:57:41.393Z,13.07
2023-01-06T02:00:09.014Z,13.05
2023-01-06T02:02:36.468Z,13.02
2023-01-06T02:05:03.852Z,12.96
2023-01-06T02:07:31.201Z,12.97
2023-01-06T02:10:01.310Z,12.94
2023-01-06T02:12:28.996Z,12.94
2023-01-06T02:14:56.076Z,12.90
2023-01-06T02:17:23.611Z,12.84
2023-01-06T02:19:51.944Z,12.83
2023-01-06T02:22:21.973Z,12.80
2023-01-06T02:24:52.023Z,12.79
2023-01-06T02:27:22.093Z,12.72
2023-01-06T02:29:52.303Z,12.66
2023-01-06T02:32:22.334Z,12.65
2023-01-06T02:34:52.431Z,12.63
2023-01-06T02:37:22.757Z,12.59
2023-01-06T02:39:51.403Z,12.56
2023-01-06T02:42:18.751Z,12.52
2023-01-06T02:44:48.835Z,12.48
2023-01-06T02:47:19.993Z,12.39
2023-01-06T02:49:52.742Z,12.34
2023-01-06T02:52:21.234Z,12.27
2023-01-06T02:54:51.377Z,12.22
2023-01-06T02:57:18.766Z,12.18
2023-01-06T02:59:50.352Z,12.12
2023-01-06T03:02:19.152Z,12.07
2023-01-06T03:04:47.927Z,12.00
2023-01-06T03:07:15.996Z,11.96
2023-01-06T03:09:44.247Z,11.92
2023-01-06T03:12:17.302Z,11.85
2023-01-06T03:14:47.042Z,11.82
2023-01-06T03:17:14.284Z,11.78
2023-01-06T03:19:41.536Z,11.74
2023-01-06T03:22:10.095Z,11.71
2023-01-06T03:24:38.077Z,11.67
2023-01-06T03:27:05.778Z,11.61
2023-01-06T03:29:33.255Z,11.57
2023-01-06T03:32:04.091Z,11.51
2023-01-06T03:34:34.194Z,11.49
2023-01-06T03:37:04.294Z,11.48
2023-01-06T03:39:31.664Z,11.46
2023-01-06T03:42:04.902Z,11.44
2023-01-06T03:44:33.304Z,11.37
2023-01-06T03:47:05.855Z,11.31
2023-01-06T03:49:36.729Z,11.26
2023-01-06T03:52:08.242Z,11.26
2023-01-06T03:54:36.777Z,11.22
2023-01-06T03:57:04.152Z,11.17
2023-01-06T03:59:33.313Z,11.12
2023-01-06T04:02:00.815Z,11.09
2023-01-06T04:04:27.916Z,11.08
2023-01-06T04:06:55.021Z,11.02
2023-01-06T04:09:22.274Z,10.99
2023-01-06T04:11:52.443Z,10.98
2023-01-06T04:14:19.555Z,10.97
2023-01-06T04:16:46.623Z,10.92
2023-01-06T04:19:13.794Z,10.88
2023-01-06T04:21:40.796Z,10.83
2023-01-06T04:24:07.928Z,10.83
2023-01-06T04:26:35.015Z,10.85
2023-01-06T04:29:02.760Z,10.83
2023-01-06T04:31:30.485Z,10.82
2023-01-06T04:33:58.440Z,10.76
2023-01-06T04:36:25.554Z,10.75
2023-01-06T04:38:52.650Z,10.73
2023-01-06T04:41:19.765Z,10.70
2023-01-06T04:43:46.856Z,10.71
2023-01-06T04:46:13.880Z,10.69
2023-01-06T04:48:41.175Z,10.67
2023-01-06T04:51:09.271Z,10.68
2023-01-06T04:53:37.225Z,10.65
2023-01-06T04:56:05.503Z,10.62
2023-01-06T04:58:33.140Z,10.57
2023-01-06T05:01:03.365Z,10.54
2023-01-06T05:03:30.936Z,10.53
2023-01-06T05:06:01.036Z,10.50
2023-01-06T05:08:28.263Z,10.52
2023-01-06T05:10:58.376Z,10.52
2023-01-06T05:13:25.435Z,10.47
2023-01-06T05:15:52.495Z,10.45
2023-01-06T05:18:19.493Z,10.40
2023-01-06T05:20:50.424Z,10.40
2023-01-06T05:23:17.576Z,10.38
2023-01-06T05:25:44.636Z,10.35
2023-01-06T05:28:12.199Z,10.32
2023-01-06T05:30:39.320Z,10.26
2023-01-06T05:33:06.546Z,10.22
2023-01-06T05:35:33.630Z,10.17
2023-01-06T05:38:00.631Z,10.18
2023-01-06T05:40:28.335Z,10.17
2023-01-06T05:42:56.962Z,10.15
2023-01-06T05:45:25.316Z,10.12
2023-01-06T05:47:52.736Z,10.13
2023-01-06T05:50:19.859Z,10.13
2023-01-06T05:52:46.908Z,10.12
2023-01-06T05:55:13.995Z,10.15
2023-01-06T05:57:41.135Z,10.18
2023-01-06T06:00:08.764Z,10.19
2023-01-06T06:02:35.916Z,10.20
2023-01-06T06:05:02.961Z,10.18
2023-01-06T06:07:30.155Z,10.14
2023-01-06T06:09:57.377Z,10.15
2023-01-06T06:12:24.439Z,10.13
2023-01-06T06:14:51.510Z,10.11
2023-01-06T06:17:18.717Z,10.06
2023-01-06T06:19:45.735Z,10.03
2023-01-06T06:22:12.902Z,10.00
2023-01-06T06:24:39.968Z,9.97
2023-01-06T06:27:06.951Z,9.97
2023-01-06T06:29:34.196Z,9.93
2023-01-06T06:32:01.260Z,9.90
2023-01-06T06:34:28.335Z,9.90
2023-01-06T06:36:55.463Z,9.87
2023-01-06T06:39:22.495Z,9.83
2023-01-06T06:41:49.530Z,9.81
2023-01-06T06:44:16.676Z,9.84
2023-01-06T06:46:43.807Z,9.86
2023-01-06T06:49:10.879Z,9.87
2023-01-06T06:51:38.006Z,9.81
2023-01-06T06:54:05.241Z,9.77
2023-01-06T06:56:32.261Z,9.83
2023-01-06T06:58:59.356Z,9.85
2023-01-06T07:01:26.627Z,9.87
2023-01-06T07:03:53.841Z,9.90
2023-01-06T07:06:23.759Z,9.90
2023-01-06T07:08:51.342Z,9.91
2023-01-06T07:11:18.857Z,9.90
2023-01-06T07:13:46.357Z,9.86
2023-01-06T07:16:13.611Z,9.85
2023-01-06T07:18:40.795Z,9.83
2023-01-06T07:21:08.068Z,9.82
2023-01-06T07:23:35.237Z,9.81
2023-01-06T07:26:03.096Z,9.81
2023-01-06T07:28:31.215Z,9.80
2023-01-06T07:30:58.394Z,9.72
2023-01-06T07:33:25.514Z,9.64
2023-01-06T07:35:53.946Z,9.63
2023-01-06T07:38:21.047Z,9.63
2023-01-06T07:40:48.451Z,9.60
2023-01-06T07:43:17.256Z,9.60
2023-01-06T07:45:46.296Z,9.56
2023-01-06T07:48:13.375Z,9.51
2023-01-06T07:50:40.467Z,9.46
2023-01-06T07:53:07.603Z,9.44
2023-01-06T07:55:34.683Z,9.44
2023-01-06T07:58:04.818Z,9.43
2023-01-06T08:00:32.044Z,9.44
2023-01-06T08:02:59.222Z,9.51
2023-01-06T08:05:26.296Z,9.54
2023-01-06T08:07:53.456Z,9.55
2023-01-06T08:10:20.600Z,9.54
2023-01-06T08:12:47.679Z,9.51
2023-01-06T08:15:14.741Z,9.51
2023-01-06T08:17:42.380Z,9.54
2023-01-06T08:20:10.159Z,9.53
2023-01-06T08:22:37.276Z,9.55
2023-01-06T08:25:04.477Z,9.59
2023-01-06T08:27:31.663Z,9.58
2023-01-06T08:29:59.443Z,9.60
2023-01-06T08:32:26.526Z,9.62
2023-01-06T08:34:53.853Z,9.64
2023-01-06T08:37:20.977Z,9.66
2023-01-06T08:39:48.135Z,9.70
2023-01-06T08:42:15.235Z,9.74
2023-01-06T08:44:42.422Z,9.73
2023-01-06T08:47:09.584Z,9.71
2023-01-06T08:49:36.661Z,9.70
2023-01-06T08:52:04.011Z,9.70
2023-01-06T08:54:31.153Z,9.74
2023-01-06T08:56:58.305Z,9.77
2023-01-06T08:59:25.308Z,9.95
2023-01-06T09:01:54.852Z,10.09
2023-01-06T09:04:22.120Z,10.11
2023-01-06T09:06:49.179Z,10.09
2023-01-06T09:09:17.236Z,10.09
2023-01-06T09:11:44.661Z,10.16
2023-01-06T09:14:12.337Z,10.17
2023-01-06T09:16:39.504Z,10.20
2023-01-06T09:19:06.624Z,10.21
2023-01-06T09:21:33.916Z,10.24
2023-01-06T09:24:00.982Z,10.24
2023-01-06T09:26:28.034Z,10.27
2023-01-06T09:28:55.612Z,10.33
2023-01-06T09:31:22.754Z,10.41
2023-01-06T09:33:49.943Z,10.45
2023-01-06T09:36:16.980Z,10.47
2023-01-06T09:38:44.081Z,10.48
2023-01-06T09:41:14.242Z,10.49
2023-01-06T09:43:50.047Z,10.53
2023-01-06T09:46:20.299Z,10.53
2023-01-06T09:48:57.333Z,10.56
2023-01-06T09:51:26.160Z,10.56
2023-01-06T09:53:57.256Z,10.56
2023-01-06T09:56:25.461Z,10.61
2023-01-06T09:58:57.361Z,10.63
2023-01-06T10:01:28.112Z,10.67
2023-01-06T10:03:57.291Z,10.70
2023-01-06T10:06:27.519Z,10.73
2023-01-06T10:08:57.717Z,10.77
2023-01-06T10:11:26.263Z,10.82
2023-01-06T10:13:57.109Z,10.80
2023-01-06T10:16:27.231Z,10.83
2023-01-06T10:18:59.622Z,10.85
2023-01-06T10:21:29.802Z,10.92
2023-01-06T10:23:59.984Z,10.98
2023-01-06T10:26:30.336Z,11.08
2023-01-06T10:29:00.549Z,11.15
2023-01-06T10:31:30.788Z,11.26
2023-01-06T10:33:58.677Z,11.30
2023-01-06T10:36:33.211Z,11.36
2023-01-06T10:39:01.658Z,11.45
2023-01-06T10:41:31.817Z,11.54
2023-01-06T10:43:58.974Z,11.61
2023-01-06T10:46:30.986Z,11.65
2023-01-06T10:48:58.179Z,11.68
2023-01-06T10:51:25.655Z,11.74
2023-01-06T10:53:53.299Z,11.78
2023-01-06T10:56:20.396Z,11.84
2023-01-06T10:58:53.575Z,11.84
2023-01-06T11:01:23.923Z,11.84
2023-01-06T11:04:07.076Z,11.91
2023-01-06T11:06:34.900Z,11.94
2023-01-06T11:09:08.054Z,11.99
2023-01-06T11:11:45.781Z,12.06
2023-01-06T11:14:15.947Z,12.09
2023-01-06T11:16:43.113Z,12.10
2023-01-06T11:19:23.102Z,12.14
2023-01-06T11:21:50.176Z,12.14
2023-01-06T11:24:20.619Z,12.18
2023-01-06T11:26:50.781Z,12.21
2023-01-06T11:29:19.914Z,12.20
2023-01-06T11:31:49.486Z,12.17
2023-01-06T11:34:19.693Z,12.16
2023-01-06T11:36:47.411Z,12.17
2023-01-06T11:39:16.723Z,12.20
2023-01-06T11:41:46.304Z,12.22
2023-01-06T11:44:13.816Z,12.25
2023-01-06T11:46:46.539Z,12.29
2023-01-06T11:49:16.982Z,12.35
2023-01-06T11:51:44.919Z,12.36
2023-01-06T11:54:15.679Z,12.37
2023-01-06T11:56:57.184Z,12.37
2023-01-06T11:59:25.666Z,12.39
2023-01-06T12:01:55.909Z,12.40
2023-01-06T12:04:26.247Z,12.46
2023-01-06T12:06:55.720Z,12.50
2023-01-06T12:09:23.246Z,12.53
2023-01-06T12:11:50.732Z,12.54
2023-01-06T12:14:28.463Z,12.53
2023-01-06T12:16:59.490Z,12.51
2023-01-06T12:19:33.305Z,12.50
2023-01-06T12:22:01.310Z,12.47
2023-01-06T12:24:30.142Z,12.48
2023-01-06T12:26:57.572Z,12.41
2023-01-06T12:29:25.466Z,12.40
2023-01-06T12:31:55.687Z,12.41
2023-01-06T12:34:26.215Z,12.41
2023-01-06T12:36:56.702Z,12.41
2023-01-06T12:39:28.518Z,12.40
2023-01-06T12:41:57.590Z,12.46
2023-01-06T12:44:27.735Z,12.47
2023-01-06T12:46:57.961Z,12.50
2023-01-06T12:49:29.718Z,12.49
2023-01-06T12:51:58.811Z,12.51
2023-01-06T12:54:27.338Z,12.54
2023-01-06T12:56:57.602Z,12.56
2023-01-06T12:59:26.139Z,12.58
2023-01-06T13:01:54.125Z,12.63
2023-01-06T13:04:21.743Z,12.68
2023-01-06T13:06:52.035Z,12.72
2023-01-06T13:09:23.172Z,12.75
2023-01-06T13:11:50.584Z,12.80
2023-01-06T13:14:20.713Z,12.80
2023-01-06T13:16:51.169Z,12.81
2023-01-06T13:19:21.695Z,12.81
2023-01-06T13:21:51.069Z,12.85
2023-01-06T13:24:27.223Z,12.90
2023-01-06T13:26:54.738Z,12.93
2023-01-06T13:29:25.013Z,12.94
2023-01-06T13:32:01.645Z,12.94
2023-01-06T13:34:37.292Z,12.95
2023-01-06T13:37:07.424Z,12.95
2023-01-06T13:39:39.523Z,12.94
2023-01-06T13:42:08.237Z,12.94
2023-01-06T13:44:37.552Z,12.95
2023-01-06T13:47:06.835Z,12.97
2023-01-06T13:49:34.678Z,12.98
2023-01-06T13:52:01.819Z,12.99
2023-01-06T13:54:32.013Z,12.99
2023-01-06T13:57:02.234Z,12.99
2023-01-06T13:59:29.297Z,13.04
2023-01-06T14:02:00.128Z,13.05
2023-01-06T14:04:31.026Z,13.07
2023-01-06T14:06:58.511Z,13.07
2023-01-06T14:09:25.782Z,13.07
2023-01-06T14:11:53.436Z,13.05
2023-01-06T14:14:26.927Z,13.00
2023-01-06T14:16:54.942Z,12.98
2023-01-06T14:19:24.336Z,12.93
2023-01-06T14:21:54.628Z,12.93
2023-01-06T14:24:23.545Z,12.87
2023-01-06T14:26:54.505Z,12.84
2023-01-06T14:29:24.829Z,12.80
2023-01-06T14:31:52.097Z,12.80
2023-01-06T14:34:19.424Z,12.82
2023-01-06T14:36:50.159Z,12.86
2023-01-06T14:39:20.898Z,12.86
2023-01-06T14:41:51.197Z,12.90
2023-01-06T14:44:20.502Z,12.92
2023-01-06T14:46:50.668Z,12.94
2023-01-06T14:49:21.139Z,12.94
2023-01-06T14:51:53.534Z,12.91
2023-01-06T14:54:20.955Z,12.91
2023-01-06T14:56:51.071Z,12.92
2023-01-06T14:59:18.279Z,12.92
2023-01-06T15:01:54.773Z,12.94
2023-01-06T15:04:25.137Z,12.93
2023-01-06T15:06:55.382Z,12.91
2023-01-06T15:09:22.400Z,12.88
2023-01-06T15:11:49.639Z,12.89
2023-01-06T15:14:19.947Z,12.86
2023-01-06T15:16:47.076Z,12.84
2023-01-06T15:19:15.597Z,12.84
2023-01-06T15:21:44.628Z,12.84
2023-01-06T15:24:14.869Z,12.85
2023-01-06T15:26:42.491Z,12.85
2023-01-06T15:29:15.220Z,12.86
2023-01-06T15:31:43.322Z,12.86
2023-01-06T15:34:18.791Z,12.84
2023-01-06T15:36:46.743Z,12.82
2023-01-06T15:39:16.019Z,12.82
2023-01-06T15:41:43.637Z,12.82
2023-01-06T15:44:13.839Z,12.82
2023-01-06T15:46:42.456Z,12.81
2023-01-06T15:49:12.627Z,12.80
2023-01-06T15:51:39.764Z,12.78
2023-01-06T15:54:06.947Z,12.77
2023-01-06T15:56:34.165Z,12.77
2023-01-06T15:59:02.030Z,12.75
2023-01-06T16:01:29.282Z,12.74
2023-01-06T16:03:58.696Z,12.72
2023-01-06T16:06:27.231Z,12.70
2023-01-06T16:08:54.456Z,12.67
2023-01-06T16:11:43.015Z,12.63
2023-01-06T16:14:13.393Z,12.58
2023-01-06T16:16:40.676Z,12.58
2023-01-06T16:19:10.834Z,12.55
2023-01-06T16:21:38.090Z,12.55
2023-01-06T16:24:06.027Z,12.53
2023-01-06T16:26:41.001Z,12.50
2023-01-06T16:29:24.624Z,12.49
2023-01-06T16:31:51.651Z,12.49
2023-01-06T16:34:21.719Z,12.49
2023-01-06T16:36:49.625Z,12.48
2023-01-06T16:39:17.025Z,12.49
2023-01-06T16:41:47.153Z,12.51
2023-01-06T16:44:16.443Z,12.53
2023-01-06T16:46:43.781Z,12.54
2023-01-06T16:49:11.161Z,12.56
2023-01-06T16:51:38.381Z,12.56
2023-01-06T16:54:11.126Z,12.58
2023-01-06T16:56:38.924Z,12.60
2023-01-06T16:59:09.182Z,12.63
2023-01-06T17:01:36.489Z,12.68
2023-01-06T17:04:03.967Z,12.69
2023-01-06T17:06:31.845Z,12.69
2023-01-06T17:09:01.546Z,12.70
2023-01-06T17:11:29.882Z,12.72
2023-01-06T17:13:59.985Z,12.76
2023-01-06T17:16:31.412Z,12.77
2023-01-06T17:19:00.564Z,12.78
2023-01-06T17:21:28.117Z,12.79
2023-01-06T17:24:02.996Z,12.81
2023-01-06T17:26:30.110Z,12.85
2023-01-06T17:28:57.951Z,12.88
2023-01-06T17:31:29.311Z,12.90
2023-01-06T17:33:57.784Z,12.93
2023-01-06T17:36:25.955Z,12.93
2023-01-06T17:38:53.357Z,12.96
2023-01-06T17:41:21.641Z,12.98
2023-01-06T17:43:48.845Z,12.98
2023-01-06T17:46:19.614Z,12.97
2023-01-06T17:48:48.122Z,12.97
2023-01-06T17:51:16.125Z,12.99
2023-01-06T17:53:46.548Z,12.98
2023-01-06T17:56:13.737Z,13.02
2023-01-06T17:58:43.558Z,13.15
2023-01-06T18:01:14.613Z,13.23
2023-01-06T18:03:43.120Z,13.23
2023-01-06T18:06:13.475Z,13.23
2023-01-06T18:08:40.547Z,13.20
2023-01-06T18:11:10.982Z,13.19
2023-01-06T18:13:39.301Z,13.18
2023-01-06T18:16:24.474Z,13.19
2023-01-06T18:18:51.596Z,13.21
2023-01-06T18:21:21.658Z,13.25
2023-01-06T18:23:50.835Z,13.25
2023-01-06T18:26:21.305Z,13.24
2023-01-06T18:28:48.438Z,13.24
2023-01-06T18:31:17.689Z,13.26
2023-01-06T18:33:44.852Z,13.27
2023-01-06T18:36:11.983Z,13.27
2023-01-06T18:38:39.068Z,13.28
2023-01-06T18:41:10.211Z,13.31
2023-01-06T18:43:39.328Z,13.30
2023-01-06T18:46:09.586Z,13.30
2023-01-06T18:48:38.606Z,13.30
2023-01-06T18:51:16.404Z,13.33
2023-01-06T18:53:43.839Z,13.33
2023-01-06T18:56:14.981Z,13.33
2023-01-06T18:58:48.386Z,13.33
2023-01-06T19:01:20.008Z,13.32
2023-01-06T19:03:50.263Z,13.34
2023-01-06T19:06:18.659Z,13.35
2023-01-06T19:08:47.344Z,13.37
2023-01-06T19:11:17.899Z,13.37
2023-01-06T19:13:46.023Z,13.40
2023-01-06T19:16:16.237Z,13.43
2023-01-06T19:18:43.378Z,13.44
2023-01-06T19:21:13.578Z,13.46
2023-01-06T19:23:40.957Z,13.47
2023-01-06T19:26:11.781Z,13.46
2023-01-06T19:28:38.881Z,13.46
2023-01-06T19:31:06.434Z,13.47
2023-01-06T19:33:35.141Z,13.48
2023-01-06T19:36:03.695Z,13.47
2023-01-06T19:38:34.146Z,13.48
2023-01-06T19:41:02.781Z,13.48
2023-01-06T19:43:31.579Z,13.51
2023-01-06T19:46:02.250Z,13.51
2023-01-06T19:48:38.378Z,13.54
2023-01-06T19:51:08.539Z,13.57
2023-01-06T19:53:41.695Z,13.59
2023-01-06T19:56:12.045Z,13.61
2023-01-06T19:58:39.101Z,13.63
2023-01-06T20:01:06.393Z,13.64
2023-01-06T20:03:34.544Z,13.64
2023-01-06T20:06:01.964Z,13.64
2023-01-06T20:08:29.196Z,13.64
2023-01-06T20:10:56.466Z,13.62
2023-01-06T20:13:23.876Z,13.63
2023-01-06T20:15:50.955Z,13.62
2023-01-06T20:18:18.181Z,13.62
2023-01-06T20:20:45.216Z,13.63
2023-01-06T20:23:12.359Z,13.66
2023-01-06T20:25:39.606Z,13.67
2023-01-06T20:28:06.856Z,13.68
2023-01-06T20:30:33.997Z,13.67
2023-01-06T20:33:01.146Z,13.66
2023-01-06T20:35:28.456Z,13.65
2023-01-06T20:37:55.605Z,13.66
2023-01-06T20:40:22.710Z,13.68
2023-01-06T20:42:50.022Z,13.69
2023-01-06T20:45:17.265Z,13.69
2023-01-06T20:47:44.465Z,13.70
2023-01-06T20:50:14.151Z,13.74
2023-01-06T20:52:41.779Z,13.77
2023-01-06T20:55:09.496Z,13.73
2023-01-06T20:57:36.823Z,13.74
2023-01-06T21:00:05.081Z,13.75
2023-01-06T21:02:32.318Z,13.75
2023-01-06T21:04:59.647Z,13.74
2023-01-06T21:07:26.847Z,13.75
2023-01-06T21:09:53.995Z,13.75
2023-01-06T21:12:21.104Z,13.76
2023-01-06T21:14:48.257Z,13.75
2023-01-06T21:17:15.398Z,13.73
2023-01-06T21:19:42.595Z,13.72
2023-01-06T21:22:10.052Z,13.75
2023-01-06T21:24:37.175Z,13.76
2023-01-06T21:27:04.347Z,13.76
2023-01-06T21:29:31.534Z,13.76
2023-01-06T21:32:00.742Z,13.75
2023-01-06T21:34:28.143Z,13.76
2023-01-06T21:36:55.461Z,13.78
2023-01-06T21:39:22.736Z,13.79
2023-01-06T21:41:53.079Z,13.77
2023-01-06T21:44:21.497Z,13.76
2023-01-06T21:46:48.718Z,13.76
2023-01-06T21:49:15.998Z,13.76
2023-01-06T21:51:43.243Z,13.75
2023-01-06T21:54:10.473Z,13.76
2023-01-06T21:56:37.851Z,13.77
2023-01-06T21:59:05.061Z,13.76
2023-01-06T22:01:32.204Z,13.75
2023-01-06T22:03:59.515Z,13.76
2023-01-06T22:06:30.085Z,13.75
2023-01-06T22:08:58.637Z,13.74
2023-01-06T22:11:25.967Z,13.73
2023-01-06T22:13:53.642Z,13.73
2023-01-06T22:16:20.963Z,13.73
2023-01-06T22:18:48.104Z,13.73
2023-01-06T22:21:15.508Z,13.75
2023-01-06T22:23:43.774Z,13.75
2023-01-06T22:26:10.941Z,13.77
2023-01-06T22:28:38.141Z,13.78
2023-01-06T22:31:05.410Z,13.81
2023-01-06T22:33:32.540Z,13.83
2023-01-06T22:36:00.228Z,13.83
2023-01-06T22:38:27.468Z,13.85
2023-01-06T22:40:54.627Z,13.86
2023-01-06T22:43:22.488Z,13.88
2023-01-06T22:45:52.680Z,13.90
2023-01-06T22:48:20.256Z,13.90
2023-01-06T22:50:47.374Z,13.88
2023-01-06T22:53:15.054Z,13.89
2023-01-06T22:55:42.136Z,13.88
2023-01-06T22:58:09.360Z,13.87
2023-01-06T23:00:36.536Z,13.87
2023-01-06T23:03:03.684Z,13.87
2023-01-06T23:05:30.944Z,13.85
2023-01-06T23:07:58.038Z,13.84
2023-01-06T23:10:25.180Z,13.86
2023-01-06T23:12:53.315Z,13.87
2023-01-06T23:15:20.447Z,13.88
2023-01-06T23:17:47.792Z,13.84
2023-01-06T23:20:14.845Z,13.86
2023-01-06T23:22:41.904Z,13.87
2023-01-06T23:25:09.725Z,13.88
2023-01-06T23:27:38.175Z,13.89
2023-01-06T23:30:06.004Z,13.91
2023-01-06T23:32:33.065Z,13.91
2023-01-06T23:35:00.178Z,13.92
2023-01-06T23:37:43.492Z,13.95
2023-01-06T23:40:15.623Z,13.95
2023-01-06T23:42:48.303Z,13.96
2023-01-06T23:45:15.339Z,13.98
2023-01-06T23:47:42.355Z,13.96
2023-01-06T23:50:09.833Z,13.96
2023-01-06T23:52:36.974Z,13.99
2023-01-06T23:55:05.195Z,14.01
2023-01-06T23:57:32.260Z,14.03
2023-01-06T23:59:59.357Z,14.05
